sensor_id;sensor_type;location;lat;lon;timestamp;P1;durP1;ratioP1;P2;durP2;ratioP2
19808;SDS011;48538;32.784;-96.802;2023-06-14T00:02:00;70.30;;;37.17;;
19808;SDS011;48538;32.784;-96.802;2023-06-14T00:04:26;68.97;;;38.42;;
19808;SDS011;48538;32.784;-96.802;2023-06-14T00:06:52;74.43;;;38.45;;
19808;SDS011;48538;32.784;-96.802;2023-06-14T00:09:22;76.75;;;38.72;;
19808;SDS011;48538;32.784;-96.802;2023-06-14T00:11:48;80.88;;;38.78;;
19808;SDS011;48538;32.784;-96.802;2023-06-14T00:14:14;76.25;;;39.03;;
19808;SDS011;48538;32.784;-96.802;2023-06-14T00:16:41;73.53;;;38.88;;
19808;SDS011;48538;32.784;-96.802;2023-06-14T00:19:08;71.85;;;38.55;;
19808;SDS011;48538;32.784;-96.802;2023-06-14T00:21:35;81.30;;;38.53;;
19808;SDS011;48538;32.784;-96.802;2023-06-14T00:24:03;70.88;;;38.17;;
19808;SDS011;48538;32.784;-96.802;2023-06-14T00:26:30;67.68;;;37.63;;
19808;SDS011;48538;32.784;-96.802;2023-06-14T00:28:56;74.57;;;37.88;;
19808;SDS011;48538;32.784;-96.802;2023-06-14T00:31:22;84.03;;;45.80;;
19808;SDS011;48538;32.784;-96.802;2023-06-14T00:33:49;74.43;;;39.10;;
19808;SDS011;48538;32.784;-96.802;2023-06-14T00:36:15;72.15;;;38.55;;
19808;SDS011;48538;32.784;-96.802;2023-06-14T00:38:41;74.95;;;38.28;;
19808;SDS011;48538;32.784;-96.802;2023-06-14T00:41:08;78.15;;;39.13;;
19808;SDS011;48538;32.784;-96.802;2023-06-14T00:43:34;74.07;;;39.00;;
19808;SDS011;48538;32.784;-96.802;2023-06-14T00:46:00;76.60;;;39.22;;
19808;SDS011;48538;32.784;-96.802;2023-06-14T00:48:27;73.93;;;37.22;;
19808;SDS011;48538;32.784;-96.802;2023-06-14T00:50:54;69.32;;;37.50;;
19808;SDS011;48538;32.784;-96.802;2023-06-14T00:53:21;61.85;;;33.67;;
19808;SDS011;48538;32.784;-96.802;2023-06-14T00:55:48;63.22;;;33.95;;
19808;SDS011;48538;32.784;-96.802;2023-06-14T00:58:14;59.97;;;33.03;;
19808;SDS011;48538;32.784;-96.802;2023-06-14T01:00:41;64.95;;;36.85;;
19808;SDS011;48538;32.784;-96.802;2023-06-14T01:03:08;70.05;;;36.88;;
19808;SDS011;48538;32.784;-96.802;2023-06-14T01:05:37;71.40;;;38.30;;
19808;SDS011;48538;32.784;-96.802;2023-06-14T01:15:52;78.50;;;38.85;;
19808;SDS011;48538;32.784;-96.802;2023-06-14T01:18:19;76.07;;;38.33;;
19808;SDS011;48538;32.784;-96.802;2023-06-14T01:20:49;77.25;;;38.58;;
19808;SDS011;48538;32.784;-96.802;2023-06-14T01:23:19;78.53;;;38.67;;
19808;SDS011;48538;32.784;-96.802;2023-06-14T01:25:47;73.47;;;38.20;;
19808;SDS011;48538;32.784;-96.802;2023-06-14T01:28:18;70.75;;;36.80;;
19808;SDS011;48538;32.784;-96.802;2023-06-14T01:30:46;70.55;;;38.30;;
19808;SDS011;48538;32.784;-96.802;2023-06-14T01:33:24;77.38;;;40.13;;
19808;SDS011;48538;32.784;-96.802;2023-06-14T01:35:53;76.80;;;38.92;;
19808;SDS011;48538;32.784;-96.802;2023-06-14T01:38:21;75.70;;;38.88;;
19808;SDS011;48538;32.784;-96.802;2023-06-14T01:40:50;77.40;;;39.45;;
19808;SDS011;48538;32.784;-96.802;2023-06-14T01:43:19;72.15;;;39.15;;
19808;SDS011;48538;32.784;-96.802;2023-06-14T01:45:47;68.80;;;35.78;;
19808;SDS011;48538;32.784;-96.802;2023-06-14T01:48:14;67.95;;;37.53;;
19808;SDS011;48538;32.784;-96.802;2023-06-14T01:50:41;75.13;;;38.20;;
19808;SDS011;48538;32.784;-96.802;2023-06-14T01:53:07;66.28;;;34.47;;
19808;SDS011;48538;32.784;-96.802;2023-06-14T01:55:34;55.13;;;31.70;;
19808;SDS011;48538;32.784;-96.802;2023-06-14T01:58:02;68.47;;;33.85;;
19808;SDS011;48538;32.784;-96.802;2023-06-14T02:00:29;62.13;;;33.38;;
19808;SDS011;48538;32.784;-96.802;2023-06-14T02:02:55;58.50;;;32.50;;
19808;SDS011;48538;32.784;-96.802;2023-06-14T02:05:22;54.53;;;29.50;;
19808;SDS011;48538;32.784;-96.802;2023-06-14T02:07:49;56.70;;;30.08;;
19808;SDS011;48538;32.784;-96.802;2023-06-14T02:10:15;52.85;;;29.27;;
19808;SDS011;48538;32.784;-96.802;2023-06-14T02:12:43;55.13;;;31.23;;
19808;SDS011;48538;32.784;-96.802;2023-06-14T02:15:09;52.67;;;29.63;;
19808;SDS011;48538;32.784;-96.802;2023-06-14T02:17:45;56.97;;;32.33;;
19808;SDS011;48538;32.784;-96.802;2023-06-14T02:20:15;58.63;;;33.30;;
19808;SDS011;48538;32.784;-96.802;2023-06-14T02:22:42;66.68;;;34.83;;
19808;SDS011;48538;32.784;-96.802;2023-06-14T02:25:08;63.88;;;34.25;;
19808;SDS011;48538;32.784;-96.802;2023-06-14T02:27:35;53.78;;;30.33;;
19808;SDS011;48538;32.784;-96.802;2023-06-14T02:30:01;75.05;;;38.92;;
19808;SDS011;48538;32.784;-96.802;2023-06-14T02:32:28;74.35;;;37.45;;
19808;SDS011;48538;32.784;-96.802;2023-06-14T02:34:54;71.30;;;36.50;;
19808;SDS011;48538;32.784;-96.802;2023-06-14T02:37:20;68.38;;;35.70;;
19808;SDS011;48538;32.784;-96.802;2023-06-14T02:39:47;70.90;;;37.78;;
19808;SDS011;48538;32.784;-96.802;2023-06-14T02:42:14;70.20;;;34.35;;
19808;SDS011;48538;32.784;-96.802;2023-06-14T02:44:40;69.63;;;35.67;;
19808;SDS011;48538;32.784;-96.802;2023-06-14T02:47:07;69.55;;;36.08;;
19808;SDS011;48538;32.784;-96.802;2023-06-14T02:49:33;62.53;;;33.92;;
19808;SDS011;48538;32.784;-96.802;2023-06-14T02:51:59;60.72;;;32.60;;
19808;SDS011;48538;32.784;-96.802;2023-06-14T02:54:26;54.10;;;30.73;;
19808;SDS011;48538;32.784;-96.802;2023-06-14T02:56:52;58.53;;;30.02;;
19808;SDS011;48538;32.784;-96.802;2023-06-14T02:59:18;52.05;;;28.50;;
19808;SDS011;48538;32.784;-96.802;2023-06-14T03:01:46;43.53;;;24.25;;
19808;SDS011;48538;32.784;-96.802;2023-06-14T03:04:12;42.67;;;24.10;;
19808;SDS011;48538;32.784;-96.802;2023-06-14T03:06:39;39.78;;;23.95;;
19808;SDS011;48538;32.784;-96.802;2023-06-14T03:09:05;49.88;;;26.35;;
19808;SDS011;48538;32.784;-96.802;2023-06-14T03:11:34;41.92;;;24.20;;
19808;SDS011;48538;32.784;-96.802;2023-06-14T03:14:01;43.80;;;25.05;;
19808;SDS011;48538;32.784;-96.802;2023-06-14T03:16:29;41.60;;;25.52;;
19808;SDS011;48538;32.784;-96.802;2023-06-14T03:18:56;43.25;;;25.02;;
19808;SDS011;48538;32.784;-96.802;2023-06-14T03:21:23;50.78;;;25.98;;
19808;SDS011;48538;32.784;-96.802;2023-06-14T03:23:50;43.83;;;25.15;;
19808;SDS011;48538;32.784;-96.802;2023-06-14T03:26:16;43.38;;;24.35;;
19808;SDS011;48538;32.784;-96.802;2023-06-14T03:28:46;39.83;;;23.67;;
19808;SDS011;48538;32.784;-96.802;2023-06-14T03:31:13;40.13;;;24.35;;
19808;SDS011;48538;32.784;-96.802;2023-06-14T03:33:40;43.20;;;25.20;;
19808;SDS011;48538;32.784;-96.802;2023-06-14T03:36:07;46.15;;;23.70;;
19808;SDS011;48538;32.784;-96.802;2023-06-14T03:38:33;42.35;;;23.08;;
19808;SDS011;48538;32.784;-96.802;2023-06-14T03:41:00;43.22;;;23.00;;
19808;SDS011;48538;32.784;-96.802;2023-06-14T03:43:27;47.65;;;25.27;;
19808;SDS011;48538;32.784;-96.802;2023-06-14T03:45:55;49.10;;;25.02;;
19808;SDS011;48538;32.784;-96.802;2023-06-14T03:48:21;53.17;;;27.40;;
19808;SDS011;48538;32.784;-96.802;2023-06-14T03:50:48;48.60;;;25.88;;
19808;SDS011;48538;32.784;-96.802;2023-06-14T03:53:14;46.50;;;25.45;;
19808;SDS011;48538;32.784;-96.802;2023-06-14T03:55:41;39.67;;;22.98;;
19808;SDS011;48538;32.784;-96.802;2023-06-14T03:58:07;39.60;;;23.10;;
19808;SDS011;48538;32.784;-96.802;2023-06-14T04:00:33;47.05;;;27.15;;
19808;SDS011;48538;32.784;-96.802;2023-06-14T04:03:01;44.30;;;23.92;;
19808;SDS011;48538;32.784;-96.802;2023-06-14T04:05:28;50.97;;;28.95;;
19808;SDS011;48538;32.784;-96.802;2023-06-14T04:07:54;47.50;;;25.27;;
19808;SDS011;48538;32.784;-96.802;2023-06-14T04:10:22;44.78;;;25.55;;
19808;SDS011;48538;32.784;-96.802;2023-06-14T04:12:48;48.47;;;27.10;;
19808;SDS011;48538;32.784;-96.802;2023-06-14T04:15:15;51.25;;;27.25;;
19808;SDS011;48538;32.784;-96.802;2023-06-14T04:17:42;42.85;;;25.05;;
19808;SDS011;48538;32.784;-96.802;2023-06-14T04:20:08;46.30;;;25.50;;
19808;SDS011;48538;32.784;-96.802;2023-06-14T04:22:35;49.25;;;25.10;;
19808;SDS011;48538;32.784;-96.802;2023-06-14T04:25:02;52.10;;;28.52;;
19808;SDS011;48538;32.784;-96.802;2023-06-14T04:27:31;51.70;;;27.98;;
19808;SDS011;48538;32.784;-96.802;2023-06-14T04:30:00;44.38;;;24.83;;
19808;SDS011;48538;32.784;-96.802;2023-06-14T04:32:27;39.38;;;23.30;;
19808;SDS011;48538;32.784;-96.802;2023-06-14T04:35:03;40.15;;;22.45;;
19808;SDS011;48538;32.784;-96.802;2023-06-14T04:37:31;42.88;;;22.45;;
19808;SDS011;48538;32.784;-96.802;2023-06-14T04:39:58;40.55;;;23.05;;
19808;SDS011;48538;32.784;-96.802;2023-06-14T04:42:24;39.70;;;23.17;;
19808;SDS011;48538;32.784;-96.802;2023-06-14T04:44:56;41.10;;;22.98;;
19808;SDS011;48538;32.784;-96.802;2023-06-14T04:47:22;52.40;;;25.55;;
19808;SDS011;48538;32.784;-96.802;2023-06-14T04:49:54;47.65;;;25.33;;
19808;SDS011;48538;32.784;-96.802;2023-06-14T04:52:22;56.17;;;27.90;;
19808;SDS011;48538;32.784;-96.802;2023-06-14T04:54:51;50.67;;;26.38;;
19808;SDS011;48538;32.784;-96.802;2023-06-14T04:57:19;50.10;;;26.20;;
19808;SDS011;48538;32.784;-96.802;2023-06-14T04:59:47;53.05;;;26.67;;
19808;SDS011;48538;32.784;-96.802;2023-06-14T05:02:16;49.67;;;27.63;;
19808;SDS011;48538;32.784;-96.802;2023-06-14T05:04:43;46.05;;;26.05;;
19808;SDS011;48538;32.784;-96.802;2023-06-14T05:07:09;51.30;;;27.25;;
19808;SDS011;48538;32.784;-96.802;2023-06-14T05:09:35;43.33;;;24.33;;
19808;SDS011;48538;32.784;-96.802;2023-06-14T05:12:02;38.15;;;20.38;;
19808;SDS011;48538;32.784;-96.802;2023-06-14T05:14:29;42.67;;;22.98;;
19808;SDS011;48538;32.784;-96.802;2023-06-14T05:16:55;40.38;;;21.80;;
19808;SDS011;48538;32.784;-96.802;2023-06-14T05:19:22;40.65;;;22.73;;
19808;SDS011;48538;32.784;-96.802;2023-06-14T05:21:49;44.17;;;24.40;;
19808;SDS011;48538;32.784;-96.802;2023-06-14T05:24:15;53.08;;;27.38;;
19808;SDS011;48538;32.784;-96.802;2023-06-14T05:26:45;48.30;;;28.58;;
19808;SDS011;48538;32.784;-96.802;2023-06-14T05:29:11;49.28;;;28.40;;
19808;SDS011;48538;32.784;-96.802;2023-06-14T05:31:38;56.45;;;29.65;;
19808;SDS011;48538;32.784;-96.802;2023-06-14T05:34:04;52.60;;;29.75;;
19808;SDS011;48538;32.784;-96.802;2023-06-14T05:36:31;56.40;;;30.27;;
19808;SDS011;48538;32.784;-96.802;2023-06-14T05:38:57;59.63;;;29.15;;
19808;SDS011;48538;32.784;-96.802;2023-06-14T05:41:25;58.08;;;29.08;;
19808;SDS011;48538;32.784;-96.802;2023-06-14T05:43:53;57.55;;;28.75;;
19808;SDS011;48538;32.784;-96.802;2023-06-14T05:46:20;51.35;;;27.42;;
19808;SDS011;48538;32.784;-96.802;2023-06-14T05:48:50;48.83;;;26.42;;
19808;SDS011;48538;32.784;-96.802;2023-06-14T05:51:19;60.05;;;28.30;;
19808;SDS011;48538;32.784;-96.802;2023-06-14T05:53:46;49.85;;;26.27;;
19808;SDS011;48538;32.784;-96.802;2023-06-14T05:56:13;55.47;;;28.83;;
19808;SDS011;48538;32.784;-96.802;2023-06-14T05:58:40;51.05;;;27.73;;
19808;SDS011;48538;32.784;-96.802;2023-06-14T06:01:07;53.55;;;28.45;;
19808;SDS011;48538;32.784;-96.802;2023-06-14T06:03:33;56.72;;;28.20;;
19808;SDS011;48538;32.784;-96.802;2023-06-14T06:05:59;55.33;;;27.77;;
19808;SDS011;48538;32.784;-96.802;2023-06-14T06:08:26;45.03;;;26.15;;
19808;SDS011;48538;32.784;-96.802;2023-06-14T06:10:52;47.00;;;25.75;;
19808;SDS011;48538;32.784;-96.802;2023-06-14T06:13:19;54.80;;;26.55;;
19808;SDS011;48538;32.784;-96.802;2023-06-14T06:15:45;47.15;;;24.73;;
19808;SDS011;48538;32.784;-96.802;2023-06-14T06:18:11;48.70;;;25.75;;
19808;SDS011;48538;32.784;-96.802;2023-06-14T06:20:38;35.00;;;21.83;;
19808;SDS011;48538;32.784;-96.802;2023-06-14T06:23:04;37.25;;;21.55;;
19808;SDS011;48538;32.784;-96.802;2023-06-14T06:25:31;32.15;;;19.17;;
19808;SDS011;48538;32.784;-96.802;2023-06-14T06:27:57;28.30;;;18.73;;
19808;SDS011;48538;32.784;-96.802;2023-06-14T06:30:24;22.30;;;14.43;;
19808;SDS011;48538;32.784;-96.802;2023-06-14T06:32:51;22.00;;;14.60;;
19808;SDS011;48538;32.784;-96.802;2023-06-14T06:35:18;23.98;;;15.38;;
19808;SDS011;48538;32.784;-96.802;2023-06-14T06:37:44;24.63;;;14.13;;
19808;SDS011;48538;32.784;-96.802;2023-06-14T06:40:11;21.52;;;14.15;;
19808;SDS011;48538;32.784;-96.802;2023-06-14T06:42:37;23.25;;;14.90;;
19808;SDS011;48538;32.784;-96.802;2023-06-14T06:45:04;24.17;;;15.90;;
19808;SDS011;48538;32.784;-96.802;2023-06-14T06:47:31;24.08;;;15.05;;
19808;SDS011;48538;32.784;-96.802;2023-06-14T06:49:57;24.95;;;16.63;;
19808;SDS011;48538;32.784;-96.802;2023-06-14T06:52:23;25.52;;;16.38;;
19808;SDS011;48538;32.784;-96.802;2023-06-14T06:54:50;30.55;;;18.75;;
19808;SDS011;48538;32.784;-96.802;2023-06-14T06:57:20;33.75;;;21.67;;
19808;SDS011;48538;32.784;-96.802;2023-06-14T06:59:50;38.58;;;23.15;;
19808;SDS011;48538;32.784;-96.802;2023-06-14T07:02:16;49.90;;;26.10;;
19808;SDS011;48538;32.784;-96.802;2023-06-14T07:04:43;44.05;;;24.63;;
19808;SDS011;48538;32.784;-96.802;2023-06-14T07:07:09;43.03;;;24.73;;
19808;SDS011;48538;32.784;-96.802;2023-06-14T07:09:36;47.38;;;27.08;;
19808;SDS011;48538;32.784;-96.802;2023-06-14T07:12:02;48.97;;;27.20;;
19808;SDS011;48538;32.784;-96.802;2023-06-14T07:14:28;54.63;;;28.65;;
19808;SDS011;48538;32.784;-96.802;2023-06-14T07:16:55;57.45;;;29.58;;
19808;SDS011;48538;32.784;-96.802;2023-06-14T07:19:21;61.85;;;31.02;;
19808;SDS011;48538;32.784;-96.802;2023-06-14T07:21:47;67.13;;;32.70;;
19808;SDS011;48538;32.784;-96.802;2023-06-14T07:24:14;73.35;;;33.92;;
19808;SDS011;48538;32.784;-96.802;2023-06-14T07:26:40;69.30;;;33.75;;
19808;SDS011;48538;32.784;-96.802;2023-06-14T07:29:06;69.25;;;33.85;;
19808;SDS011;48538;32.784;-96.802;2023-06-14T07:31:33;65.93;;;31.67;;
19808;SDS011;48538;32.784;-96.802;2023-06-14T07:33:59;60.95;;;31.23;;
19808;SDS011;48538;32.784;-96.802;2023-06-14T07:36:25;70.10;;;31.83;;
19808;SDS011;48538;32.784;-96.802;2023-06-14T07:38:51;64.72;;;32.15;;
19808;SDS011;48538;32.784;-96.802;2023-06-14T07:41:18;65.80;;;32.85;;
19808;SDS011;48538;32.784;-96.802;2023-06-14T07:43:49;74.00;;;33.70;;
19808;SDS011;48538;32.784;-96.802;2023-06-14T07:46:16;69.32;;;33.63;;
19808;SDS011;48538;32.784;-96.802;2023-06-14T07:48:42;73.63;;;34.10;;
19808;SDS011;48538;32.784;-96.802;2023-06-14T07:51:08;75.85;;;33.47;;
19808;SDS011;48538;32.784;-96.802;2023-06-14T07:53:35;76.22;;;35.33;;
19808;SDS011;48538;32.784;-96.802;2023-06-14T07:56:01;75.00;;;35.65;;
19808;SDS011;48538;32.784;-96.802;2023-06-14T07:58:27;78.85;;;34.30;;
19808;SDS011;48538;32.784;-96.802;2023-06-14T08:00:54;73.90;;;32.97;;
19808;SDS011;48538;32.784;-96.802;2023-06-14T08:03:20;78.45;;;35.03;;
19808;SDS011;48538;32.784;-96.802;2023-06-14T08:05:47;73.25;;;32.63;;
19808;SDS011;48538;32.784;-96.802;2023-06-14T08:08:14;71.70;;;35.05;;
19808;SDS011;48538;32.784;-96.802;2023-06-14T08:10:40;72.28;;;34.90;;
19808;SDS011;48538;32.784;-96.802;2023-06-14T08:13:07;76.85;;;32.65;;
19808;SDS011;48538;32.784;-96.802;2023-06-14T08:15:34;75.93;;;34.05;;
19808;SDS011;48538;32.784;-96.802;2023-06-14T08:18:01;70.50;;;32.67;;
19808;SDS011;48538;32.784;-96.802;2023-06-14T08:20:27;69.68;;;31.75;;
19808;SDS011;48538;32.784;-96.802;2023-06-14T08:22:55;61.85;;;31.33;;
19808;SDS011;48538;32.784;-96.802;2023-06-14T08:25:22;76.40;;;33.80;;
19808;SDS011;48538;32.784;-96.802;2023-06-14T08:27:48;76.38;;;34.00;;
19808;SDS011;48538;32.784;-96.802;2023-06-14T08:30:15;73.95;;;34.20;;
19808;SDS011;48538;32.784;-96.802;2023-06-14T08:32:42;75.15;;;34.67;;
19808;SDS011;48538;32.784;-96.802;2023-06-14T08:35:09;81.85;;;34.65;;
19808;SDS011;48538;32.784;-96.802;2023-06-14T08:37:41;76.82;;;34.03;;
19808;SDS011;48538;32.784;-96.802;2023-06-14T08:40:29;77.03;;;33.22;;
19808;SDS011;48538;32.784;-96.802;2023-06-14T08:42:55;72.28;;;34.05;;
19808;SDS011;48538;32.784;-96.802;2023-06-14T08:45:22;77.55;;;34.72;;
19808;SDS011;48538;32.784;-96.802;2023-06-14T08:47:51;76.75;;;35.13;;
19808;SDS011;48538;32.784;-96.802;2023-06-14T08:50:23;72.22;;;33.25;;
19808;SDS011;48538;32.784;-96.802;2023-06-14T08:52:55;78.75;;;33.65;;
19808;SDS011;48538;32.784;-96.802;2023-06-14T08:55:25;77.63;;;33.92;;
19808;SDS011;48538;32.784;-96.802;2023-06-14T08:57:57;75.30;;;33.75;;
19808;SDS011;48538;32.784;-96.802;2023-06-14T09:00:24;82.78;;;35.17;;
19808;SDS011;48538;32.784;-96.802;2023-06-14T09:02:52;119.53;;;36.30;;
19808;SDS011;48538;32.784;-96.802;2023-06-14T09:05:25;62.83;;;31.30;;
19808;SDS011;48538;32.784;-96.802;2023-06-14T09:07:54;86.20;;;33.45;;
19808;SDS011;48538;32.784;-96.802;2023-06-14T09:10:25;154.75;;;37.17;;
19808;SDS011;48538;32.784;-96.802;2023-06-14T09:12:53;230.73;;;40.30;;
19808;SDS011;48538;32.784;-96.802;2023-06-14T09:15:20;152.88;;;37.78;;
19808;SDS011;48538;32.784;-96.802;2023-06-14T09:17:47;381.35;;;53.65;;
19808;SDS011;48538;32.784;-96.802;2023-06-14T09:20:13;359.80;;;49.72;;
19808;SDS011;48538;32.784;-96.802;2023-06-14T09:22:43;139.55;;;36.13;;
19808;SDS011;48538;32.784;-96.802;2023-06-14T09:25:10;115.55;;;35.83;;
19808;SDS011;48538;32.784;-96.802;2023-06-14T09:27:43;91.25;;;35.67;;
19808;SDS011;48538;32.784;-96.802;2023-06-14T09:30:12;85.80;;;35.42;;
19808;SDS011;48538;32.784;-96.802;2023-06-14T09:32:39;80.80;;;33.78;;
19808;SDS011;48538;32.784;-96.802;2023-06-14T09:35:06;74.60;;;33.92;;
19808;SDS011;48538;32.784;-96.802;2023-06-14T09:37:33;75.03;;;33.13;;
19808;SDS011;48538;32.784;-96.802;2023-06-14T09:40:00;92.80;;;36.03;;
19808;SDS011;48538;32.784;-96.802;2023-06-14T09:42:29;80.38;;;36.45;;
19808;SDS011;48538;32.784;-96.802;2023-06-14T09:44:55;88.45;;;37.90;;
19808;SDS011;48538;32.784;-96.802;2023-06-14T09:47:23;100.63;;;38.90;;
19808;SDS011;48538;32.784;-96.802;2023-06-14T09:49:50;101.97;;;40.35;;
19808;SDS011;48538;32.784;-96.802;2023-06-14T09:52:20;107.68;;;39.92;;
19808;SDS011;48538;32.784;-96.802;2023-06-14T09:54:52;114.85;;;39.50;;
19808;SDS011;48538;32.784;-96.802;2023-06-14T09:57:23;168.40;;;41.70;;
19808;SDS011;48538;32.784;-96.802;2023-06-14T09:59:56;182.15;;;42.17;;
19808;SDS011;48538;32.784;-96.802;2023-06-14T10:02:35;189.27;;;41.13;;
19808;SDS011;48538;32.784;-96.802;2023-06-14T10:05:04;156.38;;;41.97;;
19808;SDS011;48538;32.784;-96.802;2023-06-14T10:07:34;199.90;;;43.55;;
19808;SDS011;48538;32.784;-96.802;2023-06-14T10:10:06;250.65;;;44.97;;
19808;SDS011;48538;32.784;-96.802;2023-06-14T10:12:32;263.40;;;41.60;;
19808;SDS011;48538;32.784;-96.802;2023-06-14T10:14:59;143.00;;;38.63;;
19808;SDS011;48538;32.784;-96.802;2023-06-14T10:18:01;147.50;;;43.15;;
19808;SDS011;48538;32.784;-96.802;2023-06-14T10:20:35;132.57;;;40.45;;
19808;SDS011;48538;32.784;-96.802;2023-06-14T10:23:22;89.32;;;33.92;;
19808;SDS011;48538;32.784;-96.802;2023-06-14T10:25:50;80.40;;;33.80;;
19808;SDS011;48538;32.784;-96.802;2023-06-14T10:28:21;125.63;;;33.50;;
19808;SDS011;48538;32.784;-96.802;2023-06-14T10:33:39;170.95;;;41.97;;
19808;SDS011;48538;32.784;-96.802;2023-06-14T10:39:07;110.97;;;37.20;;
19808;SDS011;48538;32.784;-96.802;2023-06-14T10:41:37;160.65;;;41.47;;
19808;SDS011;48538;32.784;-96.802;2023-06-14T10:46:39;78.63;;;34.95;;
19808;SDS011;48538;32.784;-96.802;2023-06-14T10:49:11;76.65;;;33.30;;
19808;SDS011;48538;32.784;-96.802;2023-06-14T10:51:38;85.50;;;35.72;;
19808;SDS011;48538;32.784;-96.802;2023-06-14T10:54:13;83.72;;;34.50;;
19808;SDS011;48538;32.784;-96.802;2023-06-14T10:56:46;84.78;;;36.17;;
19808;SDS011;48538;32.784;-96.802;2023-06-14T10:59:13;81.22;;;34.45;;
19808;SDS011;48538;32.784;-96.802;2023-06-14T11:04:18;80.45;;;34.95;;
19808;SDS011;48538;32.784;-96.802;2023-06-14T11:11:45;84.15;;;35.30;;
19808;SDS011;48538;32.784;-96.802;2023-06-14T11:14:13;81.85;;;36.65;;
19808;SDS011;48538;32.784;-96.802;2023-06-14T11:16:40;87.28;;;36.10;;
19808;SDS011;48538;32.784;-96.802;2023-06-14T11:19:06;90.38;;;38.22;;
19808;SDS011;48538;32.784;-96.802;2023-06-14T11:21:32;80.30;;;35.92;;
19808;SDS011;48538;32.784;-96.802;2023-06-14T11:23:59;75.88;;;35.22;;
19808;SDS011;48538;32.784;-96.802;2023-06-14T11:26:29;74.45;;;32.95;;
19808;SDS011;48538;32.784;-96.802;2023-06-14T11:28:59;78.05;;;34.58;;
19808;SDS011;48538;32.784;-96.802;2023-06-14T11:31:26;64.38;;;32.20;;
19808;SDS011;48538;32.784;-96.802;2023-06-14T11:33:54;64.78;;;31.02;;
19808;SDS011;48538;32.784;-96.802;2023-06-14T11:36:22;68.75;;;32.55;;
19808;SDS011;48538;32.784;-96.802;2023-06-14T11:38:57;77.78;;;34.17;;
19808;SDS011;48538;32.784;-96.802;2023-06-14T11:41:25;72.40;;;32.60;;
19808;SDS011;48538;32.784;-96.802;2023-06-14T11:43:57;67.40;;;33.15;;
19808;SDS011;48538;32.784;-96.802;2023-06-14T11:46:25;71.22;;;34.13;;
19808;SDS011;48538;32.784;-96.802;2023-06-14T11:48:51;76.20;;;34.35;;
19808;SDS011;48538;32.784;-96.802;2023-06-14T11:51:18;71.20;;;33.42;;
19808;SDS011;48538;32.784;-96.802;2023-06-14T11:53:46;63.28;;;31.77;;
19808;SDS011;48538;32.784;-96.802;2023-06-14T11:56:12;82.20;;;34.28;;
19808;SDS011;48538;32.784;-96.802;2023-06-14T11:58:39;68.72;;;33.13;;
19808;SDS011;48538;32.784;-96.802;2023-06-14T12:01:07;67.93;;;31.80;;
19808;SDS011;48538;32.784;-96.802;2023-06-14T12:03:34;67.57;;;31.27;;
19808;SDS011;48538;32.784;-96.802;2023-06-14T12:08:33;60.03;;;30.33;;
19808;SDS011;48538;32.784;-96.802;2023-06-14T12:11:06;61.72;;;30.58;;
19808;SDS011;48538;32.784;-96.802;2023-06-14T12:13:39;55.00;;;29.27;;
19808;SDS011;48538;32.784;-96.802;2023-06-14T12:16:09;62.35;;;28.73;;
19808;SDS011;48538;32.784;-96.802;2023-06-14T12:18:37;57.03;;;29.83;;
19808;SDS011;48538;32.784;-96.802;2023-06-14T12:21:05;52.22;;;27.90;;
19808;SDS011;48538;32.784;-96.802;2023-06-14T12:23:48;56.88;;;28.77;;
19808;SDS011;48538;32.784;-96.802;2023-06-14T12:26:16;54.65;;;27.65;;
19808;SDS011;48538;32.784;-96.802;2023-06-14T12:28:47;50.33;;;26.65;;
19808;SDS011;48538;32.784;-96.802;2023-06-14T12:31:14;58.92;;;30.63;;
19808;SDS011;48538;32.784;-96.802;2023-06-14T12:33:41;55.83;;;28.95;;
19808;SDS011;48538;32.784;-96.802;2023-06-14T12:36:08;52.63;;;27.95;;
19808;SDS011;48538;32.784;-96.802;2023-06-14T12:38:36;52.92;;;27.80;;
19808;SDS011;48538;32.784;-96.802;2023-06-14T12:41:03;54.15;;;29.90;;
19808;SDS011;48538;32.784;-96.802;2023-06-14T12:43:29;53.20;;;28.98;;
19808;SDS011;48538;32.784;-96.802;2023-06-14T12:45:55;65.75;;;29.48;;
19808;SDS011;48538;32.784;-96.802;2023-06-14T12:48:22;55.17;;;28.17;;
19808;SDS011;48538;32.784;-96.802;2023-06-14T12:50:48;54.88;;;29.35;;
19808;SDS011;48538;32.784;-96.802;2023-06-14T12:53:14;50.75;;;29.08;;
19808;SDS011;48538;32.784;-96.802;2023-06-14T12:55:41;59.67;;;29.60;;
19808;SDS011;48538;32.784;-96.802;2023-06-14T12:58:07;47.97;;;28.35;;
19808;SDS011;48538;32.784;-96.802;2023-06-14T13:00:33;47.72;;;27.60;;
19808;SDS011;48538;32.784;-96.802;2023-06-14T13:03:00;50.58;;;30.42;;
19808;SDS011;48538;32.784;-96.802;2023-06-14T13:05:27;59.38;;;30.33;;
19808;SDS011;48538;32.784;-96.802;2023-06-14T13:07:53;48.33;;;27.48;;
19808;SDS011;48538;32.784;-96.802;2023-06-14T13:10:19;56.53;;;29.45;;
19808;SDS011;48538;32.784;-96.802;2023-06-14T13:12:46;61.65;;;30.92;;
19808;SDS011;48538;32.784;-96.802;2023-06-14T13:15:12;59.92;;;30.30;;
19808;SDS011;48538;32.784;-96.802;2023-06-14T13:17:38;57.13;;;30.60;;
19808;SDS011;48538;32.784;-96.802;2023-06-14T13:20:08;57.55;;;31.63;;
19808;SDS011;48538;32.784;-96.802;2023-06-14T13:22:34;55.00;;;30.38;;
19808;SDS011;48538;32.784;-96.802;2023-06-14T13:25:01;50.40;;;30.20;;
19808;SDS011;48538;32.784;-96.802;2023-06-14T13:27:28;55.90;;;30.10;;
19808;SDS011;48538;32.784;-96.802;2023-06-14T13:29:55;48.08;;;28.90;;
19808;SDS011;48538;32.784;-96.802;2023-06-14T13:32:21;47.10;;;27.15;;
19808;SDS011;48538;32.784;-96.802;2023-06-14T13:34:48;57.55;;;30.45;;
19808;SDS011;48538;32.784;-96.802;2023-06-14T13:37:15;55.03;;;29.42;;
19808;SDS011;48538;32.784;-96.802;2023-06-14T13:39:41;47.15;;;27.67;;
19808;SDS011;48538;32.784;-96.802;2023-06-14T13:42:07;47.50;;;28.30;;
19808;SDS011;48538;32.784;-96.802;2023-06-14T13:44:34;56.75;;;29.45;;
19808;SDS011;48538;32.784;-96.802;2023-06-14T13:47:00;51.20;;;29.95;;
19808;SDS011;48538;32.784;-96.802;2023-06-14T13:49:26;52.40;;;29.23;;
19808;SDS011;48538;32.784;-96.802;2023-06-14T13:51:52;52.17;;;28.80;;
19808;SDS011;48538;32.784;-96.802;2023-06-14T13:54:19;52.00;;;28.00;;
19808;SDS011;48538;32.784;-96.802;2023-06-14T13:56:46;55.10;;;28.67;;
19808;SDS011;48538;32.784;-96.802;2023-06-14T13:59:13;52.95;;;28.67;;
19808;SDS011;48538;32.784;-96.802;2023-06-14T14:01:39;48.45;;;29.02;;
19808;SDS011;48538;32.784;-96.802;2023-06-14T14:04:06;52.15;;;27.55;;
19808;SDS011;48538;32.784;-96.802;2023-06-14T14:06:32;51.47;;;28.15;;
19808;SDS011;48538;32.784;-96.802;2023-06-14T14:08:58;52.42;;;29.55;;
19808;SDS011;48538;32.784;-96.802;2023-06-14T14:11:25;54.10;;;29.77;;
19808;SDS011;48538;32.784;-96.802;2023-06-14T14:13:53;57.20;;;29.77;;
19808;SDS011;48538;32.784;-96.802;2023-06-14T14:16:19;55.97;;;29.55;;
19808;SDS011;48538;32.784;-96.802;2023-06-14T14:18:46;55.15;;;30.30;;
19808;SDS011;48538;32.784;-96.802;2023-06-14T14:21:12;48.25;;;28.98;;
19808;SDS011;48538;32.784;-96.802;2023-06-14T14:23:38;46.90;;;28.58;;
19808;SDS011;48538;32.784;-96.802;2023-06-14T14:26:05;56.78;;;29.50;;